Terminal Aerodrome Forecast
Issued by NWS

Home | Current Version | Previous Version | Text Only | Print | Product List | Glossary Off
Versions: 1 2 3 4 5 6 7 8 9 10 11 12 13 14 15 16 17 18 19 20

000
FTUS43 KTOP 021318 AAB
TAFFOE
TAF AMD
KFOE 021318Z 0213/0312 20008KT 3SM -TSRA BKN080CB
     FM021500 19013G22KT P6SM SCT100
     FM030000 17007KT P6SM FEW120=

USA.gov is the U.S. government's official web portal to all federal, state and local government web resources and services.